Time;durP1;ratioP1;P1;durP2;ratioP2;P2;SDS_P1;SDS_P2;PMS_P1;PMS_P2;Temp;Humidity;BMP_temperature;BMP_pressure;BME280_temperature;BME280_humidity;BME280_pressure;Samples;Min_cycle;Max_cycle;Signal;HPM_P1;HPM_P2
2022/07/31 00:00:23;;;;;;;3.53;2.00;;;18.20;99.90;;;;;;4994249;28;20476;-76
2022/07/31 00:02:49;;;;;;;7.57;1.90;;;18.10;99.90;;;;;;5012050;28;20538;-76
2022/07/31 00:05:15;;;;;;;1.93;1.70;;;18.00;99.90;;;;;;4993856;28;20436;-76
2022/07/31 00:07:41;;;;;;;1.90;1.70;;;17.90;99.90;;;;;;4993878;28;20435;-76
2022/07/31 00:10:08;;;;;;;3.53;2.27;;;17.90;99.90;;;;;;4994100;28;20424;-75
2022/07/31 00:12:34;;;;;;;1.80;1.70;;;17.90;99.90;;;;;;4994081;28;20216;-75
2022/07/31 00:15:01;;;;;;;3.00;1.90;;;17.80;99.90;;;;;;4977714;28;20469;-76
2022/07/31 00:17:27;;;;;;;2.40;1.57;;;17.80;99.90;;;;;;5011779;28;20433;-76
2022/07/31 00:19:53;;;;;;;2.90;1.87;;;17.80;99.90;;;;;;4993650;28;20484;-76
2022/07/31 00:22:18;;;;;;;3.83;1.93;;;17.80;99.90;;;;;;5011653;28;20638;-75
2022/07/31 00:24:47;;;;;;;2.10;1.83;;;17.80;99.90;;;;;;5011896;28;20201;-76
2022/07/31 00:27:12;;;;;;;5.33;2.17;;;17.80;99.90;;;;;;4993708;28;20192;-75
2022/07/31 00:29:38;;;;;;;1.83;1.70;;;17.90;99.90;;;;;;4978475;28;20975;-76
2022/07/31 00:32:04;;;;;;;2.60;1.77;;;17.80;99.90;;;;;;4977450;28;20208;-76
2022/07/31 00:34:30;;;;;;;3.77;1.97;;;17.80;99.90;;;;;;5011263;28;20331;-76
2022/07/31 00:36:56;;;;;;;2.27;2.07;;;17.80;99.90;;;;;;4993596;28;20871;-75
2022/07/31 00:39:23;;;;;;;3.30;2.13;;;17.60;99.90;;;;;;4993191;28;20223;-76
2022/07/31 00:41:49;;;;;;;4.43;1.93;;;17.60;99.90;;;;;;5011147;28;20431;-76
2022/07/31 00:44:15;;;;;;;2.23;2.03;;;17.60;99.90;;;;;;4993484;28;20425;-77
2022/07/31 00:46:41;;;;;;;1.67;1.57;;;17.60;99.90;;;;;;4977078;28;20429;-77
2022/07/31 00:49:10;;;;;;;3.40;2.00;;;17.50;99.90;;;;;;5011396;28;20230;-78
2022/07/31 00:51:37;;;;;;;4.47;2.30;;;17.60;99.90;;;;;;4994547;28;20435;-77
2022/07/31 00:54:03;;;;;;;2.63;1.90;;;17.70;99.90;;;;;;4993436;28;20439;-77
2022/07/31 00:56:28;;;;;;;2.40;1.83;;;17.80;99.90;;;;;;4993328;28;20438;-77
2022/07/31 00:58:54;;;;;;;3.10;1.60;;;17.90;99.90;;;;;;5010588;28;20979;-77
2022/07/31 01:01:21;;;;;;;3.10;2.30;;;17.90;99.90;;;;;;4993464;28;20193;-77
2022/07/31 01:03:47;;;;;;;3.70;2.27;;;17.90;99.90;;;;;;4993193;28;20592;-77
2022/07/31 01:06:13;;;;;;;2.83;2.63;;;17.90;99.90;;;;;;4993571;28;20941;-77
2022/07/31 01:08:39;;;;;;;2.10;1.90;;;17.80;99.90;;;;;;4993670;28;20447;-76
2022/07/31 01:11:17;;;;;;;5.57;2.13;;;17.70;99.90;;;;;;4993769;28;20608;-77
2022/07/31 01:13:46;;;;;;;4.23;2.00;;;17.70;99.90;;;;;;5011856;28;20435;-77
2022/07/31 01:16:13;;;;;;;6.10;1.73;;;17.70;99.90;;;;;;5011559;28;20909;-78
2022/07/31 01:18:41;;;;;;;2.17;1.73;;;17.60;99.90;;;;;;5011577;28;20464;-77
2022/07/31 01:21:10;;;;;;;5.50;2.03;;;17.40;99.90;;;;;;5011422;28;20452;-75
2022/07/31 01:23:55;;;;;;;6.70;1.73;;;17.30;99.90;;;;;;4993714;28;20433;-75
2022/07/31 01:26:36;;;;;;;2.17;1.93;;;17.30;99.90;;;;;;5011323;28;20462;-73
2022/07/31 01:29:08;;;;;;;2.63;2.10;;;17.30;99.90;;;;;;4993496;28;20454;-78
2022/07/31 01:31:57;;;;;;;3.03;2.50;;;17.40;99.90;;;;;;4993078;28;20525;-78
2022/07/31 01:34:47;;;;;;;2.20;2.00;;;17.50;99.90;;;;;;5010856;28;20413;-77
2022/07/31 01:37:48;;;;;;;3.20;2.17;;;17.40;99.90;;;;;;5011104;28;20423;-77
2022/07/31 01:40:21;;;;;;;4.27;1.90;;;17.40;99.90;;;;;;5000831;28;20521;-77
2022/07/31 01:42:57;;;;;;;1.70;1.60;;;17.40;99.90;;;;;;4993711;28;21020;-74
2022/07/31 01:45:25;;;;;;;2.37;1.93;;;17.40;99.90;;;;;;5010918;28;20417;-74
2022/07/31 01:47:52;;;;;;;4.27;1.90;;;17.40;99.90;;;;;;4993084;28;20518;-74
2022/07/31 01:50:20;;;;;;;3.33;2.23;;;17.40;99.90;;;;;;4992800;28;20414;-74
2022/07/31 01:52:47;;;;;;;2.50;2.30;;;17.40;99.90;;;;;;4992752;28;20462;-75
2022/07/31 01:55:15;;;;;;;4.27;2.73;;;17.30;99.90;;;;;;4992879;28;20516;-75
2022/07/31 01:57:42;;;;;;;3.20;1.93;;;17.30;99.90;;;;;;5010514;28;20409;-75
2022/07/31 02:00:09;;;;;;;4.83;2.13;;;17.20;99.90;;;;;;5010536;28;20429;-75
2022/07/31 02:02:36;;;;;;;2.10;1.93;;;17.10;99.90;;;;;;4992894;28;20435;-75
2022/07/31 02:05:06;;;;;;;2.50;2.17;;;17.10;99.90;;;;;;5010516;28;20462;-75
2022/07/31 02:07:35;;;;;;;6.60;2.43;;;17.00;99.90;;;;;;5010423;28;20424;-75
2022/07/31 02:10:02;;;;;;;6.97;2.17;;;16.90;99.90;;;;;;5009880;28;20557;-75
2022/07/31 02:12:28;;;;;;;7.80;2.20;;;16.90;99.90;;;;;;4992853;28;20431;-75
2022/07/31 02:14:55;;;;;;;4.50;2.53;;;16.90;99.90;;;;;;4992773;28;20856;-74
2022/07/31 02:17:21;;;;;;;9.80;2.70;;;16.90;99.90;;;;;;4992860;28;20428;-75
2022/07/31 02:19:50;;;;;;;2.20;2.00;;;16.80;99.90;;;;;;4993653;28;20539;-75
2022/07/31 02:22:16;;;;;;;2.63;2.07;;;16.80;99.90;;;;;;5010622;28;20499;-75
2022/07/31 02:24:42;;;;;;;2.10;1.90;;;16.80;99.90;;;;;;5010481;28;20420;-76
2022/07/31 02:27:10;;;;;;;3.87;1.80;;;16.80;99.90;;;;;;4992986;28;20426;-77
2022/07/31 02:29:38;;;;;;;2.43;2.23;;;16.70;99.90;;;;;;5011543;28;20208;-75
2022/07/31 02:32:04;;;;;;;1.73;1.63;;;16.70;99.90;;;;;;4992923;28;20426;-75
2022/07/31 02:34:31;;;;;;;3.50;2.10;;;16.60;99.90;;;;;;4976419;28;20438;-75
2022/07/31 02:36:59;;;;;;;5.13;2.53;;;16.60;99.90;;;;;;5010559;28;20430;-75
2022/07/31 02:39:26;;;;;;;3.03;2.30;;;16.60;99.90;;;;;;4992195;28;20506;-75
2022/07/31 02:41:52;;;;;;;3.60;2.70;;;16.60;99.90;;;;;;5010201;28;20419;-75
2022/07/31 02:44:19;;;;;;;3.50;2.10;;;16.50;99.90;;;;;;4993223;28;20428;-76
2022/07/31 02:46:45;;;;;;;3.30;2.30;;;16.50;99.90;;;;;;4992547;28;20432;-76
2022/07/31 02:49:14;;;;;;;3.87;3.10;;;16.40;99.90;;;;;;4993119;28;20853;-77
2022/07/31 02:51:40;;;;;;;1.97;1.77;;;16.40;99.90;;;;;;4977102;28;20431;-76
2022/07/31 02:54:06;;;;;;;5.33;2.07;;;16.40;99.90;;;;;;4993050;28;21356;-75
2022/07/31 02:56:33;;;;;;;2.77;2.07;;;16.40;99.90;;;;;;5010598;28;20427;-76
2022/07/31 02:58:59;;;;;;;2.20;2.00;;;16.50;99.90;;;;;;5009758;28;20573;-75
2022/07/31 03:01:25;;;;;;;4.33;2.23;;;16.40;99.90;;;;;;4992815;28;20943;-75
2022/07/31 03:03:51;;;;;;;3.50;2.00;;;16.40;99.90;;;;;;4992659;28;20442;-76
2022/07/31 03:06:17;;;;;;;2.00;1.90;;;16.50;99.90;;;;;;4976618;28;20419;-76
2022/07/31 03:08:43;;;;;;;2.20;1.83;;;16.50;99.90;;;;;;5010800;28;20208;-75
2022/07/31 03:11:09;;;;;;;3.13;2.00;;;16.60;99.90;;;;;;4993055;28;20512;-76
2022/07/31 03:13:37;;;;;;;2.40;2.20;;;16.50;99.90;;;;;;4992865;28;20885;-76
2022/07/31 03:16:06;;;;;;;5.70;2.50;;;16.60;99.90;;;;;;5010099;28;20493;-76
2022/07/31 03:18:32;;;;;;;1.70;1.60;;;16.60;99.90;;;;;;5010002;28;20493;-75
2022/07/31 03:20:58;;;;;;;5.50;1.80;;;16.50;99.90;;;;;;5011169;28;20423;-76
2022/07/31 03:23:26;;;;;;;7.43;2.47;;;16.60;99.90;;;;;;4996285;28;20422;-76
2022/07/31 03:25:53;;;;;;;4.63;2.37;;;16.70;99.90;;;;;;5013651;28;20259;-76
2022/07/31 03:28:19;;;;;;;12.23;2.60;;;16.60;99.90;;;;;;5013723;28;20532;-77
2022/07/31 03:30:49;;;;;;;3.00;2.30;;;16.40;99.90;;;;;;4996071;28;20955;-75
2022/07/31 03:33:14;;;;;;;3.93;2.03;;;16.30;99.90;;;;;;4979544;28;20441;-76
2022/07/31 03:35:40;;;;;;;4.77;2.23;;;16.30;99.90;;;;;;5013681;28;20426;-75
2022/07/31 03:38:06;;;;;;;5.43;2.40;;;16.20;99.90;;;;;;4995603;28;20648;-76
2022/07/31 03:40:32;;;;;;;3.63;2.20;;;16.20;99.90;;;;;;5013506;28;20188;-75
2022/07/31 03:43:00;;;;;;;2.40;2.20;;;16.30;99.90;;;;;;5013431;28;20426;-76
2022/07/31 03:45:28;;;;;;;5.47;2.73;;;16.10;99.90;;;;;;4995525;28;20427;-76
2022/07/31 03:47:54;;;;;;;2.20;1.90;;;16.00;99.90;;;;;;5013115;28;20434;-75
2022/07/31 03:50:21;;;;;;;2.43;2.23;;;15.90;99.90;;;;;;5013144;28;20418;-76
2022/07/31 03:52:48;;;;;;;3.53;1.60;;;15.90;99.90;;;;;;4995495;28;20182;-78
2022/07/31 03:55:14;;;;;;;3.27;2.43;;;15.90;99.90;;;;;;5013000;28;20476;-76
2022/07/31 03:57:41;;;;;;;2.33;2.07;;;16.00;99.90;;;;;;4995508;28;20432;-76
2022/07/31 04:00:08;;;;;;;3.47;1.80;;;16.00;99.90;;;;;;4979107;28;20487;-76
2022/07/31 04:02:34;;;;;;;2.30;2.10;;;16.10;99.90;;;;;;5012621;28;20425;-78
2022/07/31 04:05:00;;;;;;;3.13;2.23;;;16.20;99.90;;;;;;5012773;28;20791;-78
2022/07/31 04:07:26;;;;;;;2.70;1.97;;;16.30;99.90;;;;;;4978999;28;20198;-76
2022/07/31 04:09:52;;;;;;;5.83;1.90;;;16.30;99.90;;;;;;5013398;28;20442;-76
2022/07/31 04:12:17;;;;;;;4.43;2.30;;;16.40;99.90;;;;;;5012464;28;20436;-77
2022/07/31 04:14:43;;;;;;;4.90;2.63;;;16.50;99.90;;;;;;5012528;28;20187;-77
2022/07/31 04:17:09;;;;;;;2.50;2.13;;;16.30;99.90;;;;;;4994790;28;20286;-77
2022/07/31 04:19:35;;;;;;;2.73;2.30;;;16.20;99.90;;;;;;4994252;28;20874;-77
2022/07/31 04:22:01;;;;;;;8.53;1.90;;;16.10;99.90;;;;;;4994662;28;20180;-77
2022/07/31 04:24:27;;;;;;;2.07;1.50;;;16.10;99.90;;;;;;5012101;28;20265;-77
2022/07/31 04:26:57;;;;;;;3.17;1.83;;;16.30;99.90;;;;;;5011929;28;20518;-75
2022/07/31 04:29:23;;;;;;;2.60;1.90;;;16.40;99.90;;;;;;4994298;28;20624;-76
2022/07/31 04:31:49;;;;;;;5.83;2.00;;;16.50;99.90;;;;;;4994016;28;20430;-74
2022/07/31 04:34:15;;;;;;;2.63;1.67;;;16.60;99.90;;;;;;4993767;28;20472;-74
2022/07/31 04:36:40;;;;;;;2.90;1.90;;;16.50;99.90;;;;;;4994009;28;20191;-78
2022/07/31 04:39:06;;;;;;;1.80;1.70;;;16.60;99.90;;;;;;5012841;28;20311;-78
2022/07/31 04:41:32;;;;;;;3.77;2.03;;;16.60;99.90;;;;;;4995721;28;20218;-78
2022/07/31 04:43:58;;;;;;;6.30;1.43;;;16.60;99.90;;;;;;4979044;28;20188;-76
2022/07/31 04:46:24;;;;;;;5.50;2.37;;;16.70;99.90;;;;;;5011791;28;20219;-75
2022/07/31 04:48:50;;;;;;;2.00;1.80;;;16.70;99.90;;;;;;4993847;28;20446;-75
2022/07/31 04:51:20;;;;;;;3.03;2.10;;;16.80;99.90;;;;;;4994067;28;20888;-75
2022/07/31 04:53:46;;;;;;;3.53;2.23;;;16.90;99.90;;;;;;5011956;28;20220;-76
2022/07/31 04:58:58;;;;;;;1.90;1.77;;;17.10;99.90;;;;;;4996885;28;20558;-77
2022/07/31 05:01:24;;;;;;;2.60;1.90;;;17.10;99.90;;;;;;5011708;28;20428;-80
2022/07/31 05:03:50;;;;;;;1.77;1.47;;;17.20;99.90;;;;;;4993958;28;20439;-77
2022/07/31 05:06:15;;;;;;;4.70;2.00;;;17.30;99.90;;;;;;5011616;28;20506;-77
2022/07/31 05:08:42;;;;;;;2.87;1.87;;;17.40;99.90;;;;;;4994008;28;20217;-78
2022/07/31 05:11:23;;;;;;;2.43;1.53;;;17.60;99.90;;;;;;4995292;28;20295;-77
2022/07/31 05:13:52;;;;;;;2.97;1.50;;;17.90;99.90;;;;;;4994057;28;20460;-77
2022/07/31 05:16:18;;;;;;;14.10;1.40;;;18.10;99.90;;;;;;5011278;28;20479;-77
2022/07/31 05:18:44;;;;;;;2.50;1.63;;;18.40;99.90;;;;;;4992753;28;20489;-75
2022/07/31 05:21:14;;;;;;;4.43;2.27;;;18.50;99.90;;;;;;5010866;28;20515;-74
2022/07/31 05:23:41;;;;;;;4.50;1.80;;;18.60;99.90;;;;;;5010900;28;20514;-76
2022/07/31 05:26:08;;;;;;;3.10;1.83;;;18.70;99.90;;;;;;5010680;28;20502;-76
2022/07/31 05:28:35;;;;;;;5.00;1.90;;;18.80;99.90;;;;;;5010493;28;21272;-76
2022/07/31 05:31:01;;;;;;;3.50;1.97;;;18.90;99.90;;;;;;5010597;28;20424;-75
2022/07/31 05:33:27;;;;;;;3.40;2.00;;;19.00;99.90;;;;;;4993232;28;20431;-75
2022/07/31 05:35:53;;;;;;;2.00;1.90;;;19.00;99.90;;;;;;5010966;28;20240;-76
2022/07/31 05:38:19;;;;;;;3.47;1.60;;;19.10;99.90;;;;;;5010731;28;20521;-76
2022/07/31 05:40:44;;;;;;;2.67;2.00;;;19.10;99.90;;;;;;5010835;28;20424;-76
2022/07/31 05:43:10;;;;;;;1.80;1.70;;;19.20;99.90;;;;;;5010910;28;20613;-75
2022/07/31 05:45:36;;;;;;;3.70;1.90;;;19.30;99.90;;;;;;5009871;28;20707;-75
2022/07/31 05:48:02;;;;;;;2.60;1.43;;;19.30;99.90;;;;;;5010699;28;20752;-75
2022/07/31 05:50:27;;;;;;;2.00;1.80;;;19.40;99.90;;;;;;5011028;28;20199;-75
2022/07/31 05:52:54;;;;;;;3.23;1.70;;;19.50;99.90;;;;;;4993148;28;20983;-75
2022/07/31 05:55:20;;;;;;;2.33;2.07;;;19.60;99.90;;;;;;5010798;28;20202;-75
2022/07/31 05:57:45;;;;;;;4.40;2.77;;;19.70;99.90;;;;;;5010828;28;20420;-75
2022/07/31 06:00:12;;;;;;;2.63;2.43;;;19.80;99.90;;;;;;5012337;28;20473;-76
2022/07/31 06:02:38;;;;;;;3.17;2.87;;;19.80;99.90;;;;;;5011494;28;20404;-75
2022/07/31 06:05:04;;;;;;;3.17;2.87;;;19.90;99.90;;;;;;4976549;28;20818;-76
2022/07/31 06:07:29;;;;;;;2.33;2.13;;;20.00;99.90;;;;;;4992586;28;20421;-76
2022/07/31 06:09:55;;;;;;;2.70;2.50;;;20.10;99.90;;;;;;4992700;28;20990;-77
2022/07/31 06:12:21;;;;;;;3.60;2.53;;;20.20;99.90;;;;;;5009855;28;20189;-76
2022/07/31 06:14:48;;;;;;;3.00;2.77;;;20.20;99.90;;;;;;4991852;28;20982;-75
2022/07/31 06:17:13;;;;;;;3.07;2.33;;;20.20;99.90;;;;;;5009881;28;20192;-76
2022/07/31 06:19:39;;;;;;;2.70;2.10;;;20.40;99.90;;;;;;4990902;28;20464;-75
2022/07/31 06:22:05;;;;;;;2.90;1.90;;;20.50;99.90;;;;;;5009622;28;20820;-76
2022/07/31 06:24:33;;;;;;;2.80;2.40;;;20.50;99.90;;;;;;4975688;28;20193;-76
2022/07/31 06:26:59;;;;;;;2.50;2.07;;;20.60;99.90;;;;;;4992174;28;20179;-76
2022/07/31 06:29:26;;;;;;;8.10;2.57;;;20.70;99.90;;;;;;5009388;28;20446;-76
2022/07/31 06:31:56;;;;;;;2.70;2.50;;;20.70;99.90;;;;;;4975495;28;20579;-76
2022/07/31 06:34:22;;;;;;;4.20;2.40;;;20.80;99.90;;;;;;4991665;28;21242;-76
2022/07/31 06:36:49;;;;;;;7.03;2.77;;;20.80;99.90;;;;;;4991709;28;20424;-76
2022/07/31 06:39:15;;;;;;;2.60;2.40;;;20.80;99.90;;;;;;4991609;28;20460;-76
2022/07/31 06:41:46;;;;;;;4.10;2.57;;;20.90;99.90;;;;;;5009355;28;20420;-76
2022/07/31 06:44:15;;;;;;;6.67;2.70;;;21.00;99.90;;;;;;4992297;28;20432;-76
2022/07/31 06:46:42;;;;;;;2.97;1.90;;;21.10;99.90;;;;;;5009205;28;20510;-76
2022/07/31 06:49:08;;;;;;;2.50;2.30;;;21.20;99.90;;;;;;5009054;28;20450;-76
2022/07/31 06:51:34;;;;;;;2.57;2.00;;;21.30;99.90;;;;;;5009136;28;20429;-76
2022/07/31 06:54:01;;;;;;;7.73;1.60;;;21.30;99.90;;;;;;5009221;28;20444;-75
2022/07/31 06:56:30;;;;;;;2.23;1.23;;;21.30;99.90;;;;;;5008773;28;20455;-75
2022/07/31 06:58:56;;;;;;;5.13;1.80;;;21.40;99.90;;;;;;4991430;28;20495;-76
2022/07/31 07:01:22;;;;;;;1.90;1.70;;;21.50;99.90;;;;;;5007807;28;20420;-76
2022/07/31 07:03:48;;;;;;;2.60;1.70;;;21.60;99.90;;;;;;5007442;28;20862;-76
2022/07/31 07:06:13;;;;;;;8.17;1.63;;;21.70;99.90;;;;;;5007552;28;20185;-76
2022/07/31 07:08:39;;;;;;;1.80;1.63;;;21.70;99.90;;;;;;4989315;28;20686;-76
2022/07/31 07:11:05;;;;;;;3.30;2.00;;;21.90;99.90;;;;;;5007707;28;20184;-76
2022/07/31 07:13:32;;;;;;;2.50;2.23;;;21.90;99.90;;;;;;4989658;28;20463;-76
2022/07/31 07:15:57;;;;;;;3.13;2.00;;;22.00;99.90;;;;;;4989676;28;20431;-76
2022/07/31 07:18:23;;;;;;;1.60;1.43;;;22.10;99.90;;;;;;5007549;28;20469;-76
2022/07/31 07:20:49;;;;;;;1.60;1.50;;;22.10;99.90;;;;;;5007540;28;20261;-75
2022/07/31 07:23:15;;;;;;;3.60;2.10;;;22.20;99.90;;;;;;5007696;28;20663;-76
2022/07/31 07:25:41;;;;;;;2.60;1.70;;;22.30;99.90;;;;;;5007907;28;20474;-76
2022/07/31 07:28:08;;;;;;;4.60;1.60;;;22.50;99.90;;;;;;4989526;28;20462;-76
2022/07/31 07:30:34;;;;;;;2.27;1.80;;;22.70;99.90;;;;;;5007273;28;20421;-76
2022/07/31 07:33:00;;;;;;;3.07;1.70;;;22.80;99.90;;;;;;5007127;28;21252;-76
2022/07/31 07:35:27;;;;;;;5.50;1.63;;;22.90;99.90;;;;;;4989537;28;20420;-76
2022/07/31 07:37:53;;;;;;;2.33;1.47;;;23.10;99.90;;;;;;5007327;28;20423;-76
2022/07/31 07:40:19;;;;;;;1.70;1.60;;;23.10;97.60;;;;;;4989276;28;20472;-75
2022/07/31 07:42:46;;;;;;;3.40;1.60;;;23.10;95.60;;;;;;5007307;28;20413;-76
2022/07/31 07:45:12;;;;;;;2.60;1.43;;;23.00;97.10;;;;;;4989665;28;20435;-76
2022/07/31 07:47:38;;;;;;;4.90;2.07;;;23.00;93.20;;;;;;5007867;28;20456;-76
2022/07/31 07:50:06;;;;;;;3.00;1.37;;;22.90;92.70;;;;;;5007810;28;20432;-76
2022/07/31 07:52:35;;;;;;;1.83;1.60;;;23.10;94.40;;;;;;5008279;28;21132;-75
2022/07/31 07:55:01;;;;;;;3.37;2.00;;;23.20;95.00;;;;;;4991522;28;20421;-76
2022/07/31 07:57:27;;;;;;;5.30;2.13;;;23.40;94.20;;;;;;4990178;28;21231;-76
2022/07/31 07:59:52;;;;;;;3.77;1.60;;;23.50;92.40;;;;;;5007626;28;20226;-76
2022/07/31 08:02:18;;;;;;;3.90;1.50;;;23.60;93.10;;;;;;4990110;28;20227;-76
2022/07/31 08:04:44;;;;;;;2.53;1.90;;;23.70;94.60;;;;;;5007894;28;20353;-76
2022/07/31 08:07:09;;;;;;;1.53;1.43;;;23.80;92.20;;;;;;5007920;28;20185;-76
2022/07/31 08:09:36;;;;;;;5.43;1.50;;;23.90;92.60;;;;;;5010993;28;20209;-76
2022/07/31 08:12:03;;;;;;;1.67;1.53;;;24.00;89.80;;;;;;5011260;28;20187;-76
2022/07/31 08:14:29;;;;;;;2.97;1.30;;;24.10;87.70;;;;;;4992865;28;20416;-76
2022/07/31 08:16:54;;;;;;;4.50;1.60;;;24.20;87.30;;;;;;5010659;28;20425;-76
2022/07/31 08:19:21;;;;;;;2.60;1.57;;;24.40;89.50;;;;;;4992683;28;20480;-75
2022/07/31 08:21:47;;;;;;;2.60;1.20;;;24.40;91.70;;;;;;5010627;28;20537;-76
2022/07/31 08:24:15;;;;;;;1.63;1.53;;;24.60;89.30;;;;;;5010289;28;20426;-76
2022/07/31 08:29:28;;;;;;;3.20;1.83;;;24.90;92.30;;;;;;4995341;28;20505;-76
2022/07/31 08:31:54;;;;;;;1.63;1.53;;;25.00;90.80;;;;;;5009952;28;20432;-76
2022/07/31 08:34:20;;;;;;;2.07;1.50;;;24.90;87.10;;;;;;4992014;28;20439;-76
2022/07/31 08:36:46;;;;;;;4.23;1.57;;;24.80;86.00;;;;;;5010020;28;20195;-76
2022/07/31 08:39:11;;;;;;;2.00;1.77;;;24.70;85.20;;;;;;5009702;28;20824;-76
2022/07/31 08:41:40;;;;;;;1.43;1.30;;;24.90;86.40;;;;;;4992160;28;20239;-76
2022/07/31 08:44:07;;;;;;;2.70;2.03;;;25.00;87.10;;;;;;4991965;28;20216;-75
2022/07/31 08:46:38;;;;;;;4.30;1.80;;;24.90;83.90;;;;;;4975620;28;20435;-76
2022/07/31 08:49:05;;;;;;;5.30;1.80;;;25.00;82.90;;;;;;5009678;28;20444;-76
2022/07/31 08:51:37;;;;;;;2.87;1.70;;;24.90;86.40;;;;;;5009573;28;20430;-76
2022/07/31 08:54:12;;;;;;;6.00;1.70;;;24.90;90.50;;;;;;4991896;28;20811;-76
2022/07/31 08:56:39;;;;;;;9.67;1.53;;;24.90;90.30;;;;;;5009539;28;20427;-76
2022/07/31 08:59:06;;;;;;;1.73;1.57;;;24.90;91.50;;;;;;5009319;28;20467;-76
2022/07/31 09:01:35;;;;;;;4.50;1.60;;;24.90;91.70;;;;;;5009668;28;21262;-76
2022/07/31 09:04:01;;;;;;;1.50;1.40;;;25.00;89.60;;;;;;5009553;28;20438;-76
2022/07/31 09:06:27;;;;;;;1.73;1.63;;;25.20;87.70;;;;;;4991628;28;20439;-76
2022/07/31 09:08:55;;;;;;;1.83;1.57;;;25.40;88.30;;;;;;5009212;28;20450;-76
2022/07/31 09:11:21;;;;;;;1.53;1.43;;;25.70;87.30;;;;;;5009353;28;20189;-76
2022/07/31 09:13:55;;;;;;;1.63;1.53;;;26.00;83.80;;;;;;5009174;28;20961;-76
2022/07/31 09:16:21;;;;;;;3.17;1.60;;;26.10;81.70;;;;;;4991709;28;21045;-76
2022/07/31 09:18:58;;;;;;;3.27;1.60;;;26.30;79.40;;;;;;4991172;28;20511;-77
2022/07/31 09:21:24;;;;;;;1.73;1.63;;;26.50;78.10;;;;;;5009918;28;20525;-77
2022/07/31 09:23:50;;;;;;;6.13;1.40;;;26.80;77.10;;;;;;5010077;28;20518;-77
2022/07/31 09:26:16;;;;;;;2.87;1.63;;;26.80;77.50;;;;;;4993915;28;20523;-77
2022/07/31 09:28:44;;;;;;;4.37;1.50;;;26.90;80.20;;;;;;5011583;28;20209;-77
2022/07/31 09:31:12;;;;;;;3.30;1.70;;;27.10;77.80;;;;;;5010737;28;20431;-77
2022/07/31 09:33:42;;;;;;;3.57;1.40;;;27.40;78.00;;;;;;4993794;28;20463;-77
2022/07/31 09:36:08;;;;;;;4.63;1.73;;;27.60;75.40;;;;;;5011396;28;20420;-76
2022/07/31 09:38:36;;;;;;;5.10;1.77;;;27.60;72.80;;;;;;4994339;28;20494;-77
2022/07/31 09:41:10;;;;;;;2.00;1.80;;;27.70;71.80;;;;;;4995128;28;20471;-77
2022/07/31 09:43:36;;;;;;;1.93;1.20;;;27.90;71.30;;;;;;4996153;28;20424;-76
2022/07/31 09:46:04;;;;;;;2.80;1.50;;;28.30;72.80;;;;;;5014200;28;20483;-76
2022/07/31 09:48:30;;;;;;;1.97;1.40;;;28.60;69.40;;;;;;4995295;28;20212;-76
2022/07/31 09:51:01;;;;;;;3.37;1.70;;;28.80;72.20;;;;;;5014761;28;20420;-76
2022/07/31 09:53:37;;;;;;;1.67;1.53;;;29.00;69.80;;;;;;4994183;28;20432;-77
2022/07/31 09:56:06;;;;;;;2.60;1.60;;;29.00;68.30;;;;;;4977270;28;20467;-77
2022/07/31 09:58:31;;;;;;;2.23;1.30;;;29.10;67.00;;;;;;4991421;28;20464;-76
2022/07/31 10:00:57;;;;;;;1.50;1.30;;;29.00;66.60;;;;;;5008680;28;20510;-77
2022/07/31 10:03:24;;;;;;;4.40;1.73;;;28.90;66.20;;;;;;5008353;28;20628;-76
2022/07/31 10:05:51;;;;;;;2.27;1.30;;;28.70;66.30;;;;;;4990840;28;20515;-76
2022/07/31 10:08:17;;;;;;;3.33;1.40;;;28.70;66.70;;;;;;4991065;28;20531;-76
2022/07/31 10:10:44;;;;;;;1.47;1.17;;;28.60;67.90;;;;;;5008469;28;20428;-76
2022/07/31 10:13:14;;;;;;;1.40;1.30;;;28.80;68.10;;;;;;5008303;28;20908;-77
2022/07/31 10:15:41;;;;;;;2.57;1.40;;;28.90;66.90;;;;;;4990259;28;20455;-77
2022/07/31 10:18:09;;;;;;;2.93;1.60;;;29.00;64.70;;;;;;5007916;28;20425;-76
2022/07/31 10:20:38;;;;;;;2.73;1.43;;;29.20;64.90;;;;;;4990293;28;20511;-77
2022/07/31 10:23:16;;;;;;;1.77;1.40;;;29.30;65.00;;;;;;5008264;28;20512;-76
2022/07/31 10:25:50;;;;;;;1.40;1.27;;;29.50;64.40;;;;;;5008058;28;20518;-77
2022/07/31 10:28:16;;;;;;;2.80;1.30;;;29.60;65.70;;;;;;4990019;28;20437;-77
2022/07/31 10:30:44;;;;;;;1.30;1.20;;;29.50;64.60;;;;;;5007338;28;20431;-77
2022/07/31 10:33:10;;;;;;;2.97;1.33;;;29.30;64.30;;;;;;4989908;28;21008;-76
2022/07/31 10:35:43;;;;;;;1.30;1.07;;;29.40;65.00;;;;;;5007966;28;20582;-76
2022/07/31 10:38:17;;;;;;;2.67;1.30;;;29.40;65.20;;;;;;5007797;28;20205;-76
2022/07/31 10:40:54;;;;;;;5.63;1.87;;;29.40;64.00;;;;;;5008578;28;20403;-77
2022/07/31 10:43:28;;;;;;;3.13;1.40;;;29.50;63.80;;;;;;5008582;28;21119;-76
2022/07/31 10:45:55;;;;;;;4.67;1.47;;;29.30;64.10;;;;;;4990448;28;20416;-76
2022/07/31 10:48:22;;;;;;;2.30;1.80;;;29.10;65.40;;;;;;5008168;28;20536;-76
2022/07/31 10:50:59;;;;;;;4.10;1.40;;;28.90;66.00;;;;;;5007749;28;20454;-76
2022/07/31 10:53:25;;;;;;;2.07;1.50;;;28.70;66.10;;;;;;4990289;28;20427;-76
2022/07/31 10:56:00;;;;;;;2.70;1.33;;;28.60;66.40;;;;;;5008064;28;20416;-76
2022/07/31 10:58:26;;;;;;;3.17;1.37;;;28.40;68.60;;;;;;4990237;28;20610;-76
2022/07/31 11:01:03;;;;;;;2.37;1.70;;;28.20;70.50;;;;;;5008367;28;20458;-76
2022/07/31 11:03:43;;;;;;;3.93;1.50;;;28.10;70.60;;;;;;5008083;28;20194;-76
2022/07/31 11:06:09;;;;;;;3.63;1.77;;;28.10;71.20;;;;;;4991009;28;20430;-76
2022/07/31 11:08:46;;;;;;;5.00;1.80;;;28.00;66.50;;;;;;5008079;28;20443;-77
2022/07/31 11:11:13;;;;;;;1.60;1.33;;;28.00;68.10;;;;;;5008535;28;21163;-76
2022/07/31 11:13:54;;;;;;;1.70;1.60;;;28.20;69.20;;;;;;5008206;28;20428;-76
2022/07/31 11:16:20;;;;;;;3.00;1.47;;;28.20;66.70;;;;;;4990401;28;20423;-76
2022/07/31 11:19:05;;;;;;;1.60;1.40;;;28.00;67.30;;;;;;5007720;28;20488;-76
2022/07/31 11:21:33;;;;;;;2.53;1.30;;;27.90;67.50;;;;;;5007974;28;20431;-76
2022/07/31 11:24:00;;;;;;;3.43;1.57;;;27.90;69.20;;;;;;4989909;28;20460;-76
2022/07/31 11:26:25;;;;;;;3.13;2.07;;;27.90;69.40;;;;;;5007710;28;20423;-76
2022/07/31 11:28:51;;;;;;;2.43;1.60;;;27.70;69.70;;;;;;5007539;28;20440;-76
2022/07/31 11:31:16;;;;;;;4.93;1.57;;;27.60;72.70;;;;;;4990094;28;20272;-76
2022/07/31 11:33:46;;;;;;;1.83;1.73;;;27.50;72.90;;;;;;4973757;28;20190;-76
2022/07/31 11:36:14;;;;;;;2.57;1.47;;;27.50;71.90;;;;;;4973766;28;20185;-76
2022/07/31 11:38:43;;;;;;;5.10;1.80;;;27.70;71.60;;;;;;5007352;28;20936;-76
2022/07/31 11:41:09;;;;;;;3.87;1.77;;;28.10;72.60;;;;;;5007572;28;20507;-76
2022/07/31 11:43:36;;;;;;;3.57;1.80;;;28.50;73.00;;;;;;5010086;28;20435;-76
2022/07/31 11:46:03;;;;;;;3.33;1.77;;;28.70;70.90;;;;;;4993683;28;20427;-76
2022/07/31 11:48:31;;;;;;;3.30;1.83;;;28.80;71.20;;;;;;5010552;28;20436;-76
2022/07/31 11:50:58;;;;;;;2.70;1.97;;;28.60;72.80;;;;;;5010871;28;20891;-76
2022/07/31 11:53:24;;;;;;;4.23;1.57;;;28.40;72.30;;;;;;4993111;28;20424;-76
2022/07/31 11:55:53;;;;;;;1.40;1.30;;;28.30;70.00;;;;;;5011020;28;20415;-76
2022/07/31 11:58:22;;;;;;;1.60;1.50;;;28.20;69.80;;;;;;5010468;28;20440;-76
2022/07/31 12:00:56;;;;;;;4.10;1.70;;;28.00;70.10;;;;;;4976365;28;20424;-76
2022/07/31 12:03:24;;;;;;;2.17;1.47;;;27.90;70.80;;;;;;5010452;28;20416;-76
2022/07/31 12:05:51;;;;;;;3.67;1.80;;;28.10;72.90;;;;;;5015234;28;20416;-77
2022/07/31 12:08:17;;;;;;;3.30;1.70;;;28.40;72.90;;;;;;5019136;28;20431;-78
2022/07/31 12:10:44;;;;;;;2.30;1.50;;;28.70;71.00;;;;;;5001958;28;20424;-77
2022/07/31 12:13:12;;;;;;;5.57;1.67;;;29.10;70.70;;;;;;5018158;28;20428;-78
2022/07/31 12:15:38;;;;;;;3.07;1.33;;;29.30;69.60;;;;;;5016281;28;20412;-76
2022/07/31 12:18:04;;;;;;;3.57;1.73;;;29.50;67.20;;;;;;5017638;28;20441;-77
2022/07/31 12:20:31;;;;;;;3.13;1.20;;;29.30;66.60;;;;;;5019724;28;20469;-78
2022/07/31 12:23:01;;;;;;;1.70;1.53;;;29.00;67.40;;;;;;5020721;28;21198;-78
2022/07/31 12:25:37;;;;;;;2.23;2.03;;;28.90;68.60;;;;;;5020756;28;20849;-78
2022/07/31 12:28:03;;;;;;;2.30;1.53;;;29.00;70.20;;;;;;5020284;28;20474;-78
2022/07/31 12:30:29;;;;;;;1.60;1.50;;;28.80;67.00;;;;;;4986665;28;20435;-79
2022/07/31 12:33:06;;;;;;;2.83;1.80;;;28.40;70.80;;;;;;5021301;28;20424;-78
2022/07/31 12:35:40;;;;;;;3.17;1.73;;;28.70;70.60;;;;;;5002744;28;20219;-78
2022/07/31 12:38:06;;;;;;;3.77;1.60;;;28.70;70.10;;;;;;5004923;28;20452;-79
2022/07/31 12:40:33;;;;;;;1.87;1.53;;;28.90;68.60;;;;;;5003383;28;20478;-78
2022/07/31 12:42:59;;;;;;;4.20;1.90;;;29.00;66.80;;;;;;5023584;28;20284;-78
2022/07/31 12:45:34;;;;;;;1.60;1.40;;;29.00;67.60;;;;;;5004969;28;20800;-78
2022/07/31 12:48:00;;;;;;;9.33;1.70;;;29.00;67.80;;;;;;5018236;28;20477;-78
2022/07/31 12:50:28;;;;;;;2.13;1.50;;;29.20;67.50;;;;;;5017968;28;20478;-78
2022/07/31 12:52:57;;;;;;;1.80;1.70;;;29.10;66.50;;;;;;5017098;28;20424;-78
2022/07/31 12:55:23;;;;;;;3.67;1.90;;;29.00;67.50;;;;;;4982075;28;21125;-78